createdAt,value
2022-10-17T00:08:30.510Z,32.50
2022-10-17T00:18:32.478Z,32.80
2022-10-17T00:28:35.193Z,33.60
2022-10-17T00:38:37.163Z,36.13
2022-10-17T00:48:40.080Z,31.88
2022-10-17T00:58:41.782Z,38.37
2022-10-17T01:08:44.801Z,32.08
2022-10-17T01:18:56.822Z,37.13
2022-10-17T01:29:16.500Z,34.47
2022-10-17T01:39:28.112Z,35.00
2022-10-17T01:49:33.595Z,34.67
2022-10-17T02:09:46.161Z,30.80
2022-10-17T02:20:12.734Z,31.58
2022-10-17T02:30:17.241Z,33.95
2022-10-17T02:40:24.314Z,31.65
2022-10-17T02:50:43.478Z,30.80
2022-10-17T03:00:49.086Z,34.67
2022-10-17T03:10:51.373Z,34.05
2022-10-17T03:20:53.017Z,43.80
2022-10-17T03:30:54.553Z,34.28
2022-10-17T03:40:58.534Z,33.40
2022-10-17T03:51:01.824Z,38.80
2022-10-17T04:01:09.235Z,43.60
2022-10-17T04:11:15.852Z,36.97
2022-10-17T04:21:18.373Z,37.50
2022-10-17T04:31:20.163Z,62.30
2022-10-17T04:41:21.712Z,40.70
2022-10-17T04:51:26.609Z,43.22
2022-10-17T05:01:28.650Z,44.58
2022-10-17T05:11:32.567Z,44.42
2022-10-17T05:21:43.448Z,48.80
2022-10-17T05:31:52.421Z,47.45
2022-10-17T05:41:54.035Z,40.42
2022-10-17T05:52:03.252Z,46.92
2022-10-17T06:02:04.970Z,37.78
2022-10-17T06:12:07.336Z,41.85
2022-10-17T06:22:08.915Z,41.70
2022-10-17T06:32:14.908Z,32.78
2022-10-17T06:42:23.145Z,36.63
2022-10-17T06:52:24.865Z,28.20
2022-10-17T07:02:26.860Z,29.30
2022-10-17T07:12:52.349Z,26.05
2022-10-17T07:23:03.614Z,37.75
2022-10-17T07:33:08.349Z,34.83
2022-10-17T07:43:09.986Z,30.20
2022-10-17T07:53:11.585Z,25.10
2022-10-17T08:03:14.677Z,24.75
2022-10-17T08:13:16.578Z,23.38
2022-10-17T08:23:22.132Z,28.58
2022-10-17T08:33:25.209Z,18.00
2022-10-17T08:43:51.522Z,20.05
2022-10-17T08:54:01.929Z,21.08
2022-10-17T09:04:37.961Z,30.35
2022-10-17T09:14:57.505Z,15.63
2022-10-17T09:25:07.326Z,18.00
2022-10-17T09:35:15.152Z,12.57
2022-10-17T09:45:25.021Z,11.45
2022-10-17T09:55:37.635Z,9.43
2022-10-17T10:05:40.683Z,15.32
2022-10-17T10:15:46.440Z,8.63
2022-10-17T10:25:55.875Z,6.88
2022-10-17T10:36:03.495Z,9.93
2022-10-17T10:46:18.375Z,7.30
2022-10-17T10:56:28.550Z,7.07
2022-10-17T11:06:38.729Z,11.10
2022-10-17T11:16:52.702Z,10.00
2022-10-17T11:27:00.058Z,10.50
2022-10-17T11:37:16.416Z,7.28
2022-10-17T11:47:40.841Z,7.05
2022-10-17T11:57:53.930Z,8.50
2022-10-17T12:08:30.588Z,12.95
2022-10-17T12:18:33.231Z,8.13
2022-10-17T12:28:38.076Z,9.32
2022-10-17T12:38:40.322Z,6.68
2022-10-17T12:48:43.179Z,7.53
2022-10-17T12:58:50.281Z,14.05
2022-10-17T13:09:03.477Z,9.07
2022-10-17T13:19:20.083Z,9.30
2022-10-17T13:29:23.749Z,11.55
2022-10-17T13:39:45.297Z,7.75
2022-10-17T13:49:55.430Z,10.23
2022-10-17T13:59:59.787Z,6.80
2022-10-17T14:10:07.286Z,7.45
2022-10-17T14:31:01.421Z,10.85
2022-10-17T14:41:40.808Z,11.05
2022-10-17T14:51:44.656Z,5.35
2022-10-17T15:01:55.366Z,9.88
2022-10-17T15:12:02.547Z,8.60
2022-10-17T15:22:04.110Z,8.55
2022-10-17T15:32:05.912Z,9.60
2022-10-17T15:42:12.122Z,13.23
2022-10-17T15:52:18.143Z,12.00
2022-10-17T16:02:21.946Z,13.05
2022-10-17T16:12:30.095Z,10.70
2022-10-17T16:22:36.645Z,7.80
2022-10-17T16:32:39.298Z,14.80
2022-10-17T16:42:41.713Z,18.38
2022-10-17T16:52:43.912Z,17.17
2022-10-17T17:02:48.175Z,13.63
2022-10-17T17:12:50.880Z,18.67
2022-10-17T17:22:53.203Z,15.63
2022-10-17T17:33:03.151Z,18.85
2022-10-17T17:43:05.213Z,19.50
2022-10-17T17:53:09.020Z,20.30
2022-10-17T18:03:17.381Z,19.08
2022-10-17T18:13:22.476Z,21.95
2022-10-17T18:23:24.699Z,24.67
2022-10-17T18:33:26.722Z,26.90
2022-10-17T18:43:29.941Z,24.63
2022-10-17T18:53:32.742Z,25.33
2022-10-17T19:03:34.679Z,23.70
2022-10-17T19:13:38.472Z,36.42
2022-10-17T19:23:56.933Z,35.50
2022-10-17T19:33:59.583Z,35.00
2022-10-17T19:44:02.139Z,28.57
2022-10-17T19:54:11.344Z,31.90
2022-10-17T20:04:16.201Z,34.00
2022-10-17T20:14:24.469Z,43.53
2022-10-17T20:24:28.226Z,37.15
2022-10-17T20:34:35.844Z,40.13
2022-10-17T20:44:46.106Z,42.92
2022-10-17T20:54:48.632Z,40.25
2022-10-17T21:04:53.471Z,38.43
2022-10-17T21:15:18.387Z,33.90
2022-10-17T21:46:58.810Z,47.40
2022-10-17T21:57:00.433Z,34.63
2022-10-17T22:07:02.035Z,46.50
2022-10-17T22:17:08.697Z,39.85
2022-10-17T22:27:10.517Z,36.15
2022-10-17T22:37:12.198Z,37.22
2022-10-17T22:47:14.068Z,40.83
2022-10-17T22:57:15.669Z,37.60
2022-10-17T23:07:17.232Z,35.80
2022-10-17T23:17:18.830Z,42.42
2022-10-17T23:27:23.450Z,42.88
2022-10-17T23:37:27.194Z,37.45
2022-10-17T23:47:31.373Z,39.65
2022-10-17T23:57:33.956Z,40.78
